createdAt,value
2019-02-24T00:03:08.667Z,78.07
2019-02-24T00:06:22.412Z,77.95
2019-02-24T00:09:36.287Z,78.11
2019-02-24T00:12:49.985Z,78.06
2019-02-24T00:16:03.589Z,77.99
2019-02-24T00:19:17.063Z,78.45
2019-02-24T00:22:30.910Z,78.99
2019-02-24T00:25:44.383Z,78.77
2019-02-24T00:28:57.852Z,79.06
2019-02-24T00:32:11.613Z,78.84
2019-02-24T00:35:25.104Z,78.32
2019-02-24T00:38:38.828Z,78.25
2019-02-24T00:41:52.616Z,78.57
2019-02-24T00:45:06.456Z,78.87
2019-02-24T00:48:19.940Z,78.75
2019-02-24T00:51:33.853Z,78.53
2019-02-24T00:54:47.679Z,78.25
2019-02-24T00:58:01.143Z,78.18
2019-02-24T01:01:14.915Z,78.25
2019-02-24T01:04:28.723Z,77.80
2019-02-24T01:07:42.584Z,77.78
2019-02-24T01:10:57.278Z,76.69
2019-02-24T01:14:10.770Z,76.25
2019-02-24T01:17:24.254Z,77.02
2019-02-24T01:20:38.008Z,76.91
2019-02-24T01:23:51.542Z,77.39
2019-02-24T01:27:05.352Z,77.30
2019-02-24T01:30:18.888Z,77.46
2019-02-24T01:33:32.293Z,77.58
2019-02-24T01:36:46.077Z,77.99
2019-02-24T01:39:59.540Z,78.12
2019-02-24T01:43:13.089Z,78.23
2019-02-24T01:46:26.885Z,78.48
2019-02-24T01:49:40.402Z,78.55
2019-02-24T01:52:54.125Z,78.68
2019-02-24T01:56:07.604Z,78.09
2019-02-24T01:59:21.092Z,77.87
2019-02-24T02:02:34.977Z,78.32
2019-02-24T02:05:49.103Z,78.36
2019-02-24T02:09:04.516Z,78.54
2019-02-24T02:12:17.999Z,78.39
2019-02-24T02:15:31.552Z,78.81
2019-02-24T02:18:45.356Z,78.90
2019-02-24T02:21:58.828Z,78.95
2019-02-24T02:25:12.629Z,78.99
2019-02-24T02:28:26.239Z,78.62
2019-02-24T02:31:39.949Z,78.59
2019-02-24T02:34:53.536Z,78.56
2019-02-24T02:38:07.038Z,78.59
2019-02-24T02:41:20.504Z,78.88
2019-02-24T02:44:33.989Z,78.80
2019-02-24T02:47:47.468Z,78.46
2019-02-24T02:51:01.224Z,78.83
2019-02-24T02:54:15.039Z,79.24
2019-02-24T02:57:28.624Z,79.55
2019-02-24T03:00:42.316Z,80.16
2019-02-24T03:03:55.787Z,80.16
2019-02-24T03:07:22.706Z,80.07
2019-02-24T03:10:36.179Z,80.13
2019-02-24T03:13:49.777Z,79.80
2019-02-24T03:17:03.226Z,79.93
2019-02-24T03:20:16.716Z,79.33
2019-02-24T03:23:30.512Z,78.87
2019-02-24T03:26:44.318Z,78.85
2019-02-24T03:29:57.788Z,79.35
2019-02-24T03:33:11.279Z,79.50
2019-02-24T03:36:25.420Z,80.15
2019-02-24T03:39:38.891Z,80.78
2019-02-24T03:42:52.353Z,80.61
2019-02-24T03:46:06.219Z,80.29
2019-02-24T03:49:20.085Z,80.44
2019-02-24T03:52:33.771Z,80.76
2019-02-24T03:55:47.464Z,79.45
2019-02-24T03:59:01.147Z,79.47
2019-02-24T04:02:15.011Z,80.12
2019-02-24T04:05:28.537Z,79.32
2019-02-24T04:08:42.004Z,79.80
2019-02-24T04:11:55.780Z,79.99
2019-02-24T04:15:09.691Z,80.01
2019-02-24T04:18:23.170Z,80.34
2019-02-24T04:21:36.666Z,80.45
2019-02-24T04:24:50.145Z,80.55
2019-02-24T04:28:04.050Z,80.53
2019-02-24T04:31:17.585Z,80.40
2019-02-24T04:34:31.043Z,79.94
2019-02-24T04:37:44.542Z,79.93
2019-02-24T04:40:58.289Z,79.92
2019-02-24T04:44:11.763Z,79.66
2019-02-24T04:47:25.256Z,79.67
2019-02-24T04:50:38.706Z,79.88
2019-02-24T04:53:52.195Z,78.66
2019-02-24T04:57:05.949Z,78.60
2019-02-24T05:00:19.533Z,79.17
2019-02-24T05:03:33.012Z,79.76
2019-02-24T05:06:46.787Z,80.18
2019-02-24T05:10:00.262Z,79.89
2019-02-24T05:13:13.755Z,78.95
2019-02-24T05:16:27.227Z,78.71
2019-02-24T05:19:40.701Z,78.65
2019-02-24T05:22:54.443Z,78.77
2019-02-24T05:26:08.150Z,79.01
2019-02-24T05:29:21.868Z,78.80
2019-02-24T05:32:35.389Z,79.26
2019-02-24T05:35:49.232Z,78.94
2019-02-24T05:39:03.935Z,79.47
2019-02-24T05:42:18.082Z,79.46
2019-02-24T05:45:32.298Z,79.07
2019-02-24T05:48:45.771Z,79.00
2019-02-24T05:51:59.243Z,78.42
2019-02-24T05:55:12.717Z,79.22
2019-02-24T05:58:26.270Z,79.45
2019-02-24T06:01:39.784Z,79.51
2019-02-24T06:04:53.295Z,79.42
2019-02-24T06:08:07.069Z,79.53
2019-02-24T06:11:20.705Z,79.04
2019-02-24T06:14:34.172Z,78.74
2019-02-24T06:17:47.671Z,78.96
2019-02-24T06:21:01.243Z,78.52
2019-02-24T06:24:14.737Z,79.02
2019-02-24T06:27:28.218Z,78.33
2019-02-24T06:30:41.692Z,77.88
2019-02-24T06:33:55.184Z,78.92
2019-02-24T06:37:08.930Z,79.26
2019-02-24T06:40:22.395Z,79.07
2019-02-24T06:43:35.891Z,79.23
2019-02-24T06:46:49.811Z,79.44
2019-02-24T06:50:05.323Z,79.48
2019-02-24T06:53:19.735Z,79.60
2019-02-24T06:56:33.316Z,79.76
2019-02-24T06:59:46.845Z,79.93
2019-02-24T07:03:00.322Z,80.16
2019-02-24T07:06:13.833Z,79.48
2019-02-24T07:09:27.360Z,79.38
2019-02-24T07:12:41.174Z,79.20
2019-02-24T07:15:55.186Z,79.04
2019-02-24T07:19:08.676Z,78.82
2019-02-24T07:22:22.286Z,78.98
2019-02-24T07:25:35.760Z,78.75
2019-02-24T07:28:50.058Z,78.68
2019-02-24T07:32:03.761Z,78.71
2019-02-24T07:35:17.226Z,78.34
2019-02-24T07:38:30.720Z,78.27
2019-02-24T07:41:44.227Z,78.67
2019-02-24T07:44:58.014Z,78.72
2019-02-24T07:48:11.538Z,78.02
2019-02-24T07:51:25.345Z,77.67
2019-02-24T07:54:38.850Z,77.76
2019-02-24T07:57:52.325Z,77.24
2019-02-24T08:01:06.183Z,76.75
2019-02-24T08:04:19.655Z,76.57
2019-02-24T08:07:33.373Z,76.07
2019-02-24T08:10:46.885Z,75.88
2019-02-24T08:14:00.351Z,75.46
2019-02-24T08:17:13.839Z,75.23
2019-02-24T08:20:27.523Z,75.07
2019-02-24T08:23:41.113Z,74.57
2019-02-24T08:26:54.935Z,73.13
2019-02-24T08:30:09.417Z,72.72
2019-02-24T08:33:23.347Z,71.86
2019-02-24T08:36:37.093Z,70.60
2019-02-24T08:39:50.699Z,67.08
2019-02-24T08:43:04.597Z,66.53
2019-02-24T08:46:18.068Z,63.86
2019-02-24T08:49:31.546Z,61.78
2019-02-24T08:52:45.038Z,60.75
2019-02-24T08:55:58.522Z,59.36
2019-02-24T08:59:12.339Z,58.19
2019-02-24T09:02:25.855Z,56.82
2019-02-24T09:05:39.674Z,56.03
2019-02-24T09:08:53.330Z,54.71
2019-02-24T09:12:07.141Z,54.81
2019-02-24T09:15:20.930Z,53.60
2019-02-24T09:18:34.788Z,52.53
2019-02-24T09:21:48.383Z,51.95
2019-02-24T09:25:03.412Z,51.19
2019-02-24T09:28:17.300Z,50.15
2019-02-24T09:31:30.895Z,49.49
2019-02-24T09:34:44.669Z,49.60
2019-02-24T09:37:58.269Z,49.07
2019-02-24T09:41:11.967Z,49.05
2019-02-24T09:44:25.779Z,47.66
2019-02-24T09:47:46.419Z,47.61
2019-02-24T09:50:54.921Z,47.23
2019-02-24T09:54:08.387Z,46.83
2019-02-24T09:57:21.874Z,45.61
2019-02-24T10:00:35.907Z,45.61
2019-02-24T10:03:49.482Z,44.14
2019-02-24T10:07:03.086Z,44.16
2019-02-24T10:10:16.681Z,44.64
2019-02-24T10:13:30.170Z,43.42
2019-02-24T10:16:43.766Z,42.43
2019-02-24T10:19:57.275Z,41.05
2019-02-24T10:23:10.805Z,42.32
2019-02-24T10:26:24.454Z,42.39
2019-02-24T10:29:37.961Z,40.57
2019-02-24T10:32:51.533Z,40.98
2019-02-24T10:36:05.489Z,39.32
2019-02-24T10:39:19.158Z,39.05
2019-02-24T10:42:32.883Z,38.78
2019-02-24T10:45:46.636Z,38.02
2019-02-24T10:49:03.353Z,37.93
2019-02-24T10:52:16.667Z,37.02
2019-02-24T10:55:30.342Z,32.98
2019-02-24T10:58:43.824Z,33.99
2019-02-24T11:01:57.329Z,34.58
2019-02-24T11:05:11.498Z,32.21
2019-02-24T11:08:25.108Z,31.38
2019-02-24T11:11:38.841Z,32.44
2019-02-24T11:14:52.601Z,31.63
2019-02-24T11:18:06.328Z,28.48
2019-02-24T11:21:20.185Z,28.17
2019-02-24T11:24:34.174Z,31.51
2019-02-24T11:27:47.970Z,32.03
2019-02-24T11:31:06.445Z,27.04
2019-02-24T11:34:20.506Z,26.80
2019-02-24T11:37:34.208Z,28.56
2019-02-24T11:40:47.915Z,27.45
2019-02-24T11:44:01.391Z,27.53
2019-02-24T11:47:15.187Z,26.31
2019-02-24T11:50:29.098Z,25.38
2019-02-24T11:53:42.577Z,21.45
2019-02-24T11:56:56.346Z,21.04
2019-02-24T12:00:10.173Z,20.88
2019-02-24T12:03:23.761Z,20.58
2019-02-24T12:06:37.689Z,20.44
2019-02-24T12:09:51.156Z,19.80
2019-02-24T12:13:05.014Z,19.82
2019-02-24T12:16:18.488Z,17.66
2019-02-24T12:19:32.239Z,18.03
2019-02-24T12:22:45.924Z,17.76
2019-02-24T12:25:59.660Z,20.41
2019-02-24T12:29:13.147Z,19.43
2019-02-24T12:32:26.632Z,20.08
2019-02-24T12:35:40.353Z,19.80
2019-02-24T12:38:54.134Z,20.64
2019-02-24T12:42:07.779Z,19.94
2019-02-24T12:45:21.298Z,20.28
2019-02-24T12:48:34.893Z,21.47
2019-02-24T12:51:48.461Z,20.33
2019-02-24T12:55:02.216Z,21.79
2019-02-24T12:58:15.685Z,20.21
2019-02-24T13:01:29.273Z,21.34
2019-02-24T13:04:43.284Z,19.38
2019-02-24T13:07:57.175Z,20.81
2019-02-24T13:11:11.074Z,20.18
2019-02-24T13:14:25.040Z,20.80
2019-02-24T13:17:38.903Z,21.91
2019-02-24T13:20:53.254Z,20.24
2019-02-24T13:24:06.955Z,20.59
2019-02-24T13:27:20.857Z,19.44
2019-02-24T13:30:36.105Z,19.41
2019-02-24T13:33:50.105Z,19.34
2019-02-24T13:37:03.934Z,21.71
2019-02-24T13:40:17.512Z,21.15
2019-02-24T13:43:31.287Z,17.18
2019-02-24T13:46:45.051Z,19.36
2019-02-24T13:49:58.549Z,15.91
2019-02-24T13:53:12.274Z,17.21
2019-02-24T13:56:25.751Z,18.69
2019-02-24T13:59:39.226Z,15.90
2019-02-24T14:02:52.819Z,17.79
2019-02-24T14:06:06.614Z,19.82
2019-02-24T14:09:20.092Z,20.04
2019-02-24T14:12:33.652Z,19.63
2019-02-24T14:15:47.139Z,19.14
2019-02-24T14:19:00.703Z,19.61
2019-02-24T14:22:14.594Z,19.27
2019-02-24T14:25:28.082Z,17.06
2019-02-24T14:28:42.163Z,17.26
2019-02-24T14:31:55.647Z,18.58
2019-02-24T14:35:10.570Z,20.23
2019-02-24T14:38:24.039Z,19.40
2019-02-24T14:41:37.577Z,18.51
2019-02-24T14:44:51.057Z,19.79
2019-02-24T14:48:04.647Z,19.15
2019-02-24T14:51:19.274Z,19.35
2019-02-24T14:54:32.868Z,19.29
2019-02-24T14:57:46.739Z,20.34
2019-02-24T15:01:00.925Z,19.92
2019-02-24T15:04:14.586Z,18.42
2019-02-24T15:07:28.257Z,17.90
2019-02-24T15:10:42.038Z,17.90
2019-02-24T15:13:55.892Z,19.35
2019-02-24T15:17:10.032Z,19.86
2019-02-24T15:20:23.815Z,21.38
2019-02-24T15:23:37.713Z,20.57
2019-02-24T15:26:51.238Z,21.50
2019-02-24T15:30:08.332Z,22.66
2019-02-24T15:33:22.312Z,23.08
2019-02-24T15:36:35.941Z,23.58
2019-02-24T15:39:49.834Z,23.78
2019-02-24T15:43:03.691Z,25.23
2019-02-24T15:46:18.246Z,24.71
2019-02-24T15:49:31.747Z,25.34
2019-02-24T15:52:46.012Z,24.79
2019-02-24T15:56:00.871Z,24.57
2019-02-24T15:59:14.371Z,25.41
2019-02-24T16:02:28.695Z,24.70
2019-02-24T16:05:42.637Z,25.55
2019-02-24T16:08:56.363Z,26.21
2019-02-24T16:12:10.257Z,27.88
2019-02-24T16:15:25.408Z,26.24
2019-02-24T16:18:38.943Z,25.56
2019-02-24T16:21:52.766Z,26.91
2019-02-24T16:25:06.914Z,27.91
2019-02-24T16:28:20.705Z,29.56
2019-02-24T16:31:34.190Z,30.80
2019-02-24T16:34:47.691Z,30.86
2019-02-24T16:38:01.473Z,32.49
2019-02-24T16:41:15.485Z,35.25
2019-02-24T16:44:29.190Z,34.87
2019-02-24T16:47:42.824Z,36.37
2019-02-24T16:50:56.620Z,37.34
2019-02-24T16:54:10.108Z,38.11
2019-02-24T16:57:23.580Z,39.41
2019-02-24T17:00:37.605Z,40.79
2019-02-24T17:03:51.277Z,41.33
2019-02-24T17:07:04.843Z,42.16
2019-02-24T17:10:18.532Z,42.95
2019-02-24T17:13:32.014Z,43.39
2019-02-24T17:16:45.545Z,44.09
2019-02-24T17:19:59.790Z,45.54
2019-02-24T17:23:13.656Z,45.84
2019-02-24T17:26:27.171Z,46.92
2019-02-24T17:29:40.647Z,47.61
2019-02-24T17:32:54.230Z,48.61
2019-02-24T17:36:07.893Z,48.60
2019-02-24T17:39:21.419Z,49.00
2019-02-24T17:42:34.893Z,50.09
2019-02-24T17:45:48.370Z,51.06
2019-02-24T17:49:01.823Z,51.89
2019-02-24T17:52:15.365Z,52.03
2019-02-24T17:55:28.909Z,52.98
2019-02-24T17:58:42.475Z,53.15
2019-02-24T18:01:55.978Z,53.52
2019-02-24T18:05:09.731Z,53.86
2019-02-24T18:08:28.239Z,53.94
2019-02-24T18:11:38.740Z,54.45
2019-02-24T18:14:52.220Z,55.51
2019-02-24T18:18:05.827Z,55.95
2019-02-24T18:21:19.607Z,55.92
2019-02-24T18:24:33.074Z,56.35
2019-02-24T18:27:46.680Z,57.54
2019-02-24T18:31:00.272Z,58.78
2019-02-24T18:34:13.884Z,58.78
2019-02-24T18:37:27.671Z,58.70
2019-02-24T18:40:41.396Z,58.59
2019-02-24T18:43:55.206Z,59.87
2019-02-24T18:47:08.675Z,60.56
2019-02-24T18:50:23.028Z,61.04
2019-02-24T18:53:36.894Z,60.89
2019-02-24T18:56:50.384Z,60.27
2019-02-24T19:00:05.117Z,61.24
2019-02-24T19:03:19.251Z,61.96
2019-02-24T19:06:39.175Z,62.03
2019-02-24T19:09:49.098Z,60.99
2019-02-24T19:13:02.663Z,60.93
2019-02-24T19:16:16.227Z,60.83
2019-02-24T19:19:29.987Z,61.57
2019-02-24T19:22:44.003Z,62.30
2019-02-24T19:25:57.454Z,62.73
2019-02-24T19:29:11.462Z,62.35
2019-02-24T19:32:24.924Z,62.75
2019-02-24T19:35:40.593Z,63.06
2019-02-24T19:38:54.209Z,62.68
2019-02-24T19:42:07.665Z,62.99
2019-02-24T19:45:21.261Z,63.28
2019-02-24T19:48:41.758Z,63.50
2019-02-24T19:51:50.458Z,64.63
2019-02-24T19:55:04.598Z,64.51
2019-02-24T19:58:18.176Z,64.41
2019-02-24T20:01:31.743Z,64.04
2019-02-24T20:04:45.218Z,64.64
2019-02-24T20:07:58.702Z,63.43
2019-02-24T20:11:12.187Z,63.66
2019-02-24T20:14:25.921Z,65.02
2019-02-24T20:17:39.374Z,65.91
2019-02-24T20:20:53.109Z,66.02
2019-02-24T20:24:06.570Z,64.91
2019-02-24T20:27:20.131Z,65.24
2019-02-24T20:30:33.738Z,65.82
2019-02-24T20:33:47.302Z,66.49
2019-02-24T20:37:00.808Z,67.32
2019-02-24T20:40:14.390Z,67.52
2019-02-24T20:43:28.111Z,67.38
2019-02-24T20:46:41.636Z,66.80
2019-02-24T20:49:55.133Z,66.66
2019-02-24T20:53:08.580Z,66.89
2019-02-24T20:56:22.265Z,66.30
2019-02-24T20:59:36.439Z,66.91
2019-02-24T21:02:50.613Z,67.60
2019-02-24T21:06:04.292Z,68.08
2019-02-24T21:09:17.771Z,67.67
2019-02-24T21:12:31.526Z,67.56
2019-02-24T21:15:44.979Z,68.04
2019-02-24T21:18:58.426Z,68.68
2019-02-24T21:22:11.905Z,68.63
2019-02-24T21:25:25.464Z,68.41
2019-02-24T21:28:39.037Z,67.63
2019-02-24T21:31:52.494Z,67.11
2019-02-24T21:35:06.472Z,67.98
2019-02-24T21:38:19.964Z,67.29
2019-02-24T21:41:33.438Z,67.71
2019-02-24T21:44:46.900Z,68.39
2019-02-24T21:48:00.345Z,68.94
2019-02-24T21:51:14.089Z,68.42
2019-02-24T21:54:27.553Z,69.00
2019-02-24T21:57:41.840Z,68.81
2019-02-24T22:00:55.290Z,68.24
2019-02-24T22:04:08.760Z,68.63
2019-02-24T22:07:22.216Z,69.18
2019-02-24T22:10:35.981Z,67.96
2019-02-24T22:13:49.438Z,68.08
2019-02-24T22:17:03.412Z,68.90
2019-02-24T22:20:17.002Z,69.68
2019-02-24T22:23:30.450Z,70.06
2019-02-24T22:26:44.555Z,70.58
2019-02-24T22:29:58.116Z,69.91
2019-02-24T22:33:11.581Z,69.83
2019-02-24T22:36:25.060Z,70.37
2019-02-24T22:39:38.910Z,70.50
2019-02-24T22:42:52.933Z,70.50
2019-02-24T22:46:06.631Z,70.96
2019-02-24T22:49:20.538Z,70.86
2019-02-24T22:52:34.037Z,70.75
2019-02-24T22:55:47.500Z,70.79
2019-02-24T22:59:01.116Z,70.69
2019-02-24T23:02:16.243Z,71.55
2019-02-24T23:05:30.068Z,71.48
2019-02-24T23:08:43.585Z,71.44
2019-02-24T23:11:57.314Z,71.24
2019-02-24T23:15:11.319Z,71.41
2019-02-24T23:18:24.810Z,72.71
2019-02-24T23:21:38.260Z,73.20
2019-02-24T23:24:52.189Z,73.46
2019-02-24T23:28:05.751Z,73.29
2019-02-24T23:31:19.209Z,73.59
2019-02-24T23:34:32.699Z,73.17
2019-02-24T23:37:46.705Z,73.34
2019-02-24T23:41:00.587Z,73.15
2019-02-24T23:44:17.234Z,73.10
2019-02-24T23:47:30.716Z,72.56
2019-02-24T23:50:44.208Z,72.69
2019-02-24T23:53:57.815Z,72.69
2019-02-24T23:57:11.265Z,71.95
